EBFN

Koksijde Air Base Airport

Koksijde, Belgium
METAR EBFN 160555Z 19008KT 9999 FEW013 SCT024 16/15 Q1016 WHT BLU TEMPO WHT
Observed Flight Rules
Aug-16 @ 05:55 UTC (20 minutes ago) Visual Flight Rules
Wind Visibility Clouds
190° at 8 knots 10,000+ meters
  • Few at 1,300' AGL
  • Scattered at 2,400' AGL
Temperatures Readings
Current 16°C / 61°F
Dewpoint 15°C / 59°F
Humidity 94%
Altimeter 30" Hg
Pressure 1016 hPa
Elevation 9
METAR EBFN 160555Z 19008KT 9999 FEW013 SCT024 16/15 Q1016 WHT BLU TEMPO WHT
Observed Flight Rules
Aug-16 @ 05:55 UTC
(20 minutes ago)
VFR
Wind Visibility
190° at 8 knots 10,000+ meters
Clouds
  • Few at 1,300' AGL
  • Scattered at 2,400' AGL
Temperature Dewpoint
16°C / 61°F 15°C / 59°F
Humidity Altimeter Pressure
94% 30" Hg 1016 hPa